createdAt,value
2023-12-30T00:00:49.008Z,7.93
2023-12-30T00:03:15.898Z,13.98
2023-12-30T00:05:42.854Z,9.35
2023-12-30T00:08:10.313Z,8.73
2023-12-30T00:10:37.158Z,10.85
2023-12-30T00:13:04.503Z,12.05
2023-12-30T00:15:31.667Z,8.05
2023-12-30T00:17:58.705Z,15.30
2023-12-30T00:20:27.130Z,7.50
2023-12-30T00:22:54.133Z,8.43
2023-12-30T00:25:23.453Z,9.40
2023-12-30T00:27:52.973Z,10.10
2023-12-30T00:30:19.922Z,12.23
2023-12-30T00:32:46.829Z,9.98
2023-12-30T00:35:13.696Z,10.95
2023-12-30T00:37:40.599Z,10.10
2023-12-30T00:40:08.200Z,10.55
2023-12-30T00:42:35.086Z,10.18
2023-12-30T00:45:01.963Z,6.88
2023-12-30T00:47:28.846Z,9.27
2023-12-30T00:49:55.833Z,8.50
2023-12-30T00:52:22.755Z,10.35
2023-12-30T00:54:51.388Z,8.48
2023-12-30T00:57:18.849Z,8.05
2023-12-30T00:59:45.857Z,10.80
2023-12-30T01:02:12.809Z,20.77
2023-12-30T01:04:39.735Z,15.52
2023-12-30T01:07:06.824Z,19.48
2023-12-30T01:09:33.712Z,13.70
2023-12-30T01:12:00.862Z,12.75
2023-12-30T01:14:27.744Z,11.05
2023-12-30T01:16:54.634Z,13.40
2023-12-30T01:19:21.550Z,18.38
2023-12-30T01:21:49.142Z,14.05
2023-12-30T01:24:16.023Z,9.90
2023-12-30T01:26:42.928Z,11.57
2023-12-30T01:29:09.763Z,8.63
2023-12-30T01:31:36.725Z,12.55
2023-12-30T01:34:03.694Z,14.10
2023-12-30T01:36:30.633Z,15.30
2023-12-30T01:38:57.801Z,13.82
2023-12-30T01:41:24.647Z,13.63
2023-12-30T01:43:51.506Z,13.43
2023-12-30T01:46:18.536Z,8.38
2023-12-30T01:48:45.597Z,7.53
2023-12-30T01:51:24.340Z,8.52
2023-12-30T01:53:53.939Z,10.38
2023-12-30T01:56:22.277Z,7.65
2023-12-30T01:58:51.411Z,18.10
2023-12-30T02:01:18.603Z,12.45
2023-12-30T02:03:45.972Z,16.83
2023-12-30T02:06:15.993Z,6.50
2023-12-30T02:08:43.056Z,12.02
2023-12-30T02:11:10.442Z,7.55
2023-12-30T02:13:37.480Z,8.75
2023-12-30T02:16:04.604Z,11.82
2023-12-30T02:18:31.624Z,8.50
2023-12-30T02:20:58.592Z,6.90
2023-12-30T02:23:28.136Z,10.35
2023-12-30T02:25:55.022Z,8.85
2023-12-30T02:28:21.912Z,19.05
2023-12-30T02:30:49.089Z,16.23
2023-12-30T02:33:16.201Z,9.45
2023-12-30T02:35:43.819Z,14.48
2023-12-30T02:38:11.031Z,10.68
2023-12-30T02:40:37.980Z,11.25
2023-12-30T02:43:05.363Z,11.50
2023-12-30T02:45:32.378Z,11.90
2023-12-30T02:47:59.406Z,15.80
2023-12-30T02:50:26.535Z,13.18
2023-12-30T02:52:53.399Z,16.23
2023-12-30T02:55:20.306Z,7.40
2023-12-30T02:57:49.965Z,12.55
2023-12-30T03:00:18.765Z,14.18
2023-12-30T03:02:46.111Z,19.33
2023-12-30T03:05:13.302Z,12.00
2023-12-30T03:07:41.181Z,11.70
2023-12-30T03:10:08.580Z,11.68
2023-12-30T03:12:35.960Z,12.52
2023-12-30T03:15:02.893Z,10.57
2023-12-30T03:17:30.211Z,9.70
2023-12-30T03:19:57.427Z,9.73
2023-12-30T03:22:24.385Z,6.13
2023-12-30T03:24:51.482Z,11.15
2023-12-30T03:27:18.371Z,10.68
2023-12-30T03:29:45.606Z,10.55
2023-12-30T03:32:13.150Z,7.68
2023-12-30T03:34:40.667Z,18.67
2023-12-30T03:37:07.853Z,15.40
2023-12-30T03:39:34.812Z,13.63
2023-12-30T03:42:04.478Z,9.65
2023-12-30T03:44:31.575Z,21.65
2023-12-30T03:46:58.458Z,9.20
2023-12-30T03:49:27.987Z,18.08
2023-12-30T03:51:55.048Z,17.15
2023-12-30T03:54:22.146Z,20.20
2023-12-30T03:56:49.430Z,19.60
2023-12-30T03:59:16.296Z,13.23
2023-12-30T04:01:44.672Z,7.38
2023-12-30T04:04:12.195Z,16.02
2023-12-30T04:06:39.110Z,18.23
2023-12-30T04:09:06.209Z,13.65
2023-12-30T04:11:33.101Z,11.40
2023-12-30T04:13:59.963Z,12.60
2023-12-30T04:16:26.994Z,11.45
2023-12-30T04:18:53.904Z,15.38
2023-12-30T04:21:21.182Z,18.83
2023-12-30T04:23:48.108Z,20.00
2023-12-30T04:26:15.028Z,16.55
2023-12-30T04:28:41.931Z,15.30
2023-12-30T04:31:08.944Z,9.73
2023-12-30T04:33:35.974Z,14.18
2023-12-30T04:36:03.721Z,11.73
2023-12-30T04:38:30.570Z,17.58
2023-12-30T04:40:57.715Z,12.30
2023-12-30T04:43:24.583Z,12.30
2023-12-30T04:45:51.594Z,14.38
2023-12-30T04:48:18.725Z,16.20
2023-12-30T04:50:45.874Z,14.48
2023-12-30T04:53:12.798Z,16.85
2023-12-30T04:55:39.670Z,16.63
2023-12-30T04:58:06.665Z,13.50
2023-12-30T05:00:34.699Z,15.65
2023-12-30T05:03:02.023Z,11.63
2023-12-30T05:05:29.214Z,17.40
2023-12-30T05:07:56.156Z,16.23
2023-12-30T05:10:23.104Z,11.00
2023-12-30T05:12:50.835Z,15.75
2023-12-30T05:15:17.892Z,18.15
2023-12-30T05:17:45.381Z,16.52
2023-12-30T05:20:13.927Z,14.90
2023-12-30T05:22:41.642Z,18.33
2023-12-30T05:25:08.811Z,30.00
2023-12-30T05:27:36.631Z,13.05
2023-12-30T05:30:05.204Z,13.38
2023-12-30T05:32:32.264Z,9.57
2023-12-30T05:34:59.286Z,19.23
2023-12-30T05:37:26.853Z,18.85
2023-12-30T05:39:53.762Z,15.02
2023-12-30T05:42:20.672Z,22.38
2023-12-30T05:44:48.756Z,16.48
2023-12-30T05:47:15.644Z,19.42
2023-12-30T05:49:42.552Z,15.18
2023-12-30T05:52:09.599Z,19.35
2023-12-30T05:54:37.058Z,14.73
2023-12-30T05:57:04.115Z,21.00
2023-12-30T05:59:30.963Z,17.83
2023-12-30T06:01:59.795Z,20.77
2023-12-30T06:04:27.142Z,17.88
2023-12-30T06:06:54.155Z,18.92
2023-12-30T06:09:21.154Z,13.82
2023-12-30T06:11:48.244Z,17.52
2023-12-30T06:14:15.476Z,18.63
2023-12-30T06:16:42.657Z,20.70
2023-12-30T06:19:09.617Z,12.95
2023-12-30T06:21:36.702Z,20.27
2023-12-30T06:24:03.587Z,17.73
2023-12-30T06:26:30.408Z,10.73
2023-12-30T06:28:57.370Z,14.52
2023-12-30T06:31:24.319Z,14.20
2023-12-30T06:33:51.212Z,20.10
2023-12-30T06:36:23.199Z,25.55
2023-12-30T06:38:50.749Z,14.10
2023-12-30T06:41:21.092Z,21.55
2023-12-30T06:43:48.472Z,12.93
2023-12-30T06:46:18.660Z,15.95
2023-12-30T06:48:45.577Z,13.93
2023-12-30T06:51:12.514Z,12.07
2023-12-30T06:53:39.665Z,17.17
2023-12-30T06:56:09.310Z,20.23
2023-12-30T06:58:37.297Z,19.95
2023-12-30T07:01:06.024Z,15.55
2023-12-30T07:03:33.616Z,20.95
2023-12-30T07:06:00.661Z,18.05
2023-12-30T07:08:27.721Z,12.82
2023-12-30T07:10:54.755Z,18.05
2023-12-30T07:13:21.873Z,22.10
2023-12-30T07:15:49.245Z,10.57
2023-12-30T07:18:16.481Z,20.52
2023-12-30T07:20:43.425Z,14.23
2023-12-30T07:23:10.361Z,11.43
2023-12-30T07:25:37.822Z,15.55
2023-12-30T07:28:05.043Z,22.10
2023-12-30T07:30:32.091Z,14.60
2023-12-30T07:32:59.218Z,27.83
2023-12-30T07:35:28.396Z,12.75
2023-12-30T07:37:55.276Z,18.42
2023-12-30T07:40:22.560Z,16.40
2023-12-30T07:42:49.510Z,20.63
2023-12-30T07:45:17.497Z,21.23
2023-12-30T07:47:44.553Z,18.27
2023-12-30T07:50:11.757Z,23.35
2023-12-30T07:52:39.346Z,10.05
2023-12-30T07:55:06.572Z,17.30
2023-12-30T07:57:33.465Z,16.80
2023-12-30T08:00:00.423Z,15.68
2023-12-30T08:02:29.578Z,12.27
2023-12-30T08:04:59.142Z,16.05
2023-12-30T08:07:26.333Z,20.40
2023-12-30T08:09:53.219Z,16.83
2023-12-30T08:12:20.060Z,16.10
2023-12-30T08:14:47.266Z,19.85
2023-12-30T08:17:14.441Z,16.90
2023-12-30T08:19:41.405Z,14.00
2023-12-30T08:22:08.403Z,15.43
2023-12-30T08:24:35.755Z,12.35
2023-12-30T08:27:02.733Z,14.90
2023-12-30T08:29:29.571Z,20.92
2023-12-30T08:31:56.474Z,27.52
2023-12-30T08:34:24.394Z,27.90
2023-12-30T08:36:51.388Z,23.95
2023-12-30T08:39:18.284Z,23.05
2023-12-30T08:41:45.188Z,16.50
2023-12-30T08:44:12.104Z,28.48
2023-12-30T08:46:39.045Z,16.17
2023-12-30T08:49:08.641Z,18.15
2023-12-30T08:51:37.676Z,35.83
2023-12-30T08:54:04.956Z,30.50
2023-12-30T08:56:33.838Z,22.17
2023-12-30T08:59:01.674Z,34.15
2023-12-30T09:01:28.699Z,19.58
2023-12-30T09:03:56.152Z,25.10
2023-12-30T09:06:23.467Z,23.30
2023-12-30T09:08:50.473Z,28.63
2023-12-30T09:11:24.429Z,22.40
2023-12-30T09:13:53.033Z,21.75
2023-12-30T09:16:20.413Z,27.35
2023-12-30T09:18:47.689Z,31.17
2023-12-30T09:21:14.924Z,26.73
2023-12-30T09:23:42.417Z,17.58
2023-12-30T09:26:09.616Z,15.18
2023-12-30T09:28:36.728Z,19.63
2023-12-30T09:31:04.068Z,22.90
2023-12-30T09:33:31.744Z,16.67
2023-12-30T09:35:58.869Z,20.45
2023-12-30T09:38:27.498Z,21.65
2023-12-30T09:40:56.250Z,26.02
2023-12-30T09:43:27.914Z,27.08
2023-12-30T09:45:56.685Z,23.33
2023-12-30T09:48:28.193Z,22.98
2023-12-30T09:50:56.648Z,24.48
2023-12-30T09:53:25.110Z,22.70
2023-12-30T09:55:52.854Z,24.55
2023-12-30T09:58:20.969Z,27.55
2023-12-30T10:00:48.161Z,21.77
2023-12-30T10:03:16.676Z,23.90
2023-12-30T10:05:43.790Z,25.70
2023-12-30T10:08:11.130Z,23.08
2023-12-30T10:10:45.001Z,22.60
2023-12-30T10:13:23.756Z,33.03
2023-12-30T10:15:51.299Z,21.80
2023-12-30T10:18:18.479Z,22.33
2023-12-30T10:20:47.046Z,17.02
2023-12-30T10:23:14.795Z,20.75
2023-12-30T10:25:43.125Z,29.20
2023-12-30T10:28:10.723Z,27.00
2023-12-30T10:30:38.109Z,15.27
2023-12-30T10:33:09.622Z,23.00
2023-12-30T10:35:36.778Z,21.27
2023-12-30T10:38:05.080Z,19.00
2023-12-30T10:40:32.624Z,22.40
2023-12-30T10:42:59.841Z,11.27
2023-12-30T10:45:27.197Z,15.68
2023-12-30T10:47:56.813Z,25.48
2023-12-30T10:50:25.394Z,15.00
2023-12-30T10:53:17.572Z,18.75
2023-12-30T10:55:54.468Z,21.80
2023-12-30T10:58:23.722Z,19.02
2023-12-30T11:01:01.305Z,15.57
2023-12-30T11:03:30.468Z,15.82
2023-12-30T11:06:25.652Z,16.05
2023-12-30T11:08:54.172Z,14.98
2023-12-30T11:11:24.290Z,11.43
2023-12-30T11:13:51.322Z,22.83
2023-12-30T11:16:20.482Z,15.30
2023-12-30T11:18:50.855Z,14.13
2023-12-30T11:21:41.626Z,15.20
2023-12-30T11:24:09.688Z,20.20
2023-12-30T11:26:43.733Z,26.05
2023-12-30T11:29:18.806Z,19.13
2023-12-30T11:31:48.471Z,19.05
2023-12-30T11:34:19.120Z,22.65
2023-12-30T11:36:53.738Z,22.55
2023-12-30T11:39:32.325Z,17.85
2023-12-30T11:42:00.495Z,13.48
2023-12-30T11:44:31.290Z,15.55
2023-12-30T11:46:59.603Z,24.42
2023-12-30T11:49:27.860Z,19.52
2023-12-30T11:52:05.739Z,22.42
2023-12-30T11:54:33.903Z,23.80
2023-12-30T11:57:01.140Z,22.67
2023-12-30T11:59:28.103Z,23.50
2023-12-30T12:02:12.698Z,23.85
2023-12-30T12:04:39.830Z,15.80
2023-12-30T12:07:07.218Z,20.23
2023-12-30T12:09:35.736Z,21.15
2023-12-30T12:12:02.961Z,20.08
2023-12-30T12:14:30.709Z,26.48
2023-12-30T12:16:57.678Z,16.83
2023-12-30T12:19:26.752Z,16.15
2023-12-30T12:22:00.426Z,26.58
2023-12-30T12:24:27.750Z,17.25
2023-12-30T12:26:54.875Z,23.83
2023-12-30T12:29:21.970Z,13.95
2023-12-30T12:31:49.045Z,20.30
2023-12-30T12:34:27.651Z,16.60
2023-12-30T12:36:55.345Z,21.08
2023-12-30T12:39:22.332Z,25.33
2023-12-30T12:41:49.742Z,13.40
2023-12-30T12:44:16.700Z,18.67
2023-12-30T12:46:43.681Z,22.27
2023-12-30T12:49:10.649Z,26.92
2023-12-30T12:51:40.385Z,27.05
2023-12-30T12:54:07.580Z,20.77
2023-12-30T12:56:34.536Z,26.77
2023-12-30T12:59:01.392Z,24.27
2023-12-30T13:01:29.485Z,21.38
2023-12-30T13:03:57.923Z,16.05
2023-12-30T13:06:25.148Z,23.40
2023-12-30T13:08:57.351Z,21.40
2023-12-30T13:11:28.359Z,24.00
2023-12-30T13:13:56.467Z,25.60
2023-12-30T13:16:23.985Z,19.45
2023-12-30T13:18:50.888Z,20.70
2023-12-30T13:21:17.987Z,28.90
2023-12-30T13:23:45.524Z,24.17
2023-12-30T13:26:12.994Z,23.67
2023-12-30T13:28:40.102Z,23.77
2023-12-30T13:31:10.177Z,22.77
2023-12-30T13:33:39.815Z,16.75
2023-12-30T13:36:12.567Z,20.15
2023-12-30T13:38:42.628Z,23.92
2023-12-30T13:41:09.541Z,28.15
2023-12-30T13:43:37.834Z,21.00
2023-12-30T13:46:26.532Z,21.60
2023-12-30T13:48:53.452Z,28.58
2023-12-30T13:51:21.303Z,19.98
2023-12-30T13:53:48.363Z,22.65
2023-12-30T13:56:21.510Z,18.08
2023-12-30T13:58:50.149Z,21.52
2023-12-30T14:01:18.372Z,27.88
2023-12-30T14:03:47.982Z,29.85
2023-12-30T14:06:19.246Z,23.15
2023-12-30T14:08:46.465Z,26.77
2023-12-30T14:11:32.403Z,28.45
2023-12-30T14:14:03.158Z,19.02
2023-12-30T14:16:32.234Z,28.92
2023-12-30T14:18:59.265Z,29.15
2023-12-30T14:21:26.548Z,31.38
2023-12-30T14:23:53.811Z,27.25
2023-12-30T14:26:20.696Z,32.85
2023-12-30T14:28:47.713Z,32.25
2023-12-30T14:31:17.024Z,29.20
2023-12-30T14:33:44.253Z,27.48
2023-12-30T14:36:12.394Z,27.25
2023-12-30T14:38:40.189Z,24.77
2023-12-30T14:41:07.707Z,30.48
2023-12-30T14:43:34.682Z,30.60
2023-12-30T14:46:02.084Z,25.55
2023-12-30T14:48:29.233Z,41.30
2023-12-30T14:50:56.183Z,26.08
2023-12-30T14:53:23.037Z,29.92
2023-12-30T14:55:50.003Z,30.48
2023-12-30T14:58:17.634Z,30.30
2023-12-30T15:00:44.643Z,23.83
2023-12-30T15:03:11.766Z,35.13
2023-12-30T15:05:38.647Z,38.85
2023-12-30T15:08:06.168Z,28.75
2023-12-30T15:10:33.526Z,30.17
2023-12-30T15:13:00.948Z,31.58
2023-12-30T15:15:28.131Z,33.17
2023-12-30T15:17:55.328Z,28.98
2023-12-30T15:20:23.511Z,31.13
2023-12-30T15:22:50.432Z,28.42
2023-12-30T15:25:20.044Z,40.13
2023-12-30T15:30:44.382Z,37.63
2023-12-30T15:33:11.981Z,33.35
2023-12-30T15:35:40.503Z,36.00
2023-12-30T15:38:07.516Z,25.65
2023-12-30T15:40:35.708Z,32.50
2023-12-30T15:43:05.550Z,33.55
2023-12-30T15:45:34.218Z,33.13
2023-12-30T15:48:01.403Z,35.45
2023-12-30T15:50:28.664Z,31.38
2023-12-30T15:52:55.723Z,39.42
2023-12-30T15:55:22.815Z,38.45
2023-12-30T15:57:49.750Z,35.97
2023-12-30T16:00:17.002Z,33.42
2023-12-30T16:02:43.977Z,35.20
2023-12-30T16:05:12.411Z,38.58
2023-12-30T16:07:39.574Z,37.85
2023-12-30T16:10:07.064Z,39.47
2023-12-30T16:12:33.993Z,41.60
2023-12-30T16:15:00.915Z,46.38
2023-12-30T16:17:27.784Z,35.47
2023-12-30T16:19:55.163Z,46.72
2023-12-30T16:22:22.227Z,49.47
2023-12-30T16:24:49.211Z,38.55
2023-12-30T16:27:16.509Z,42.22
2023-12-30T16:29:43.977Z,54.45
2023-12-30T16:32:10.943Z,47.65
2023-12-30T16:34:38.298Z,49.03
2023-12-30T16:37:06.079Z,42.92
2023-12-30T16:39:32.940Z,45.58
2023-12-30T16:41:59.940Z,42.28
2023-12-30T16:44:26.885Z,43.15
2023-12-30T16:46:53.805Z,45.45
2023-12-30T16:49:20.796Z,36.10
2023-12-30T16:51:47.811Z,32.08
2023-12-30T16:54:15.399Z,38.58
2023-12-30T16:56:42.328Z,35.72
2023-12-30T16:59:09.588Z,41.95
2023-12-30T17:01:37.299Z,37.15
2023-12-30T17:04:04.898Z,32.40
2023-12-30T17:06:33.856Z,33.90
2023-12-30T17:09:02.185Z,31.95
2023-12-30T17:11:29.110Z,29.15
2023-12-30T17:13:57.617Z,30.42
2023-12-30T17:16:24.658Z,36.90
2023-12-30T17:18:51.888Z,35.38
2023-12-30T17:21:18.813Z,29.23
2023-12-30T17:23:45.816Z,28.25
2023-12-30T17:26:13.038Z,48.47
2023-12-30T17:28:40.789Z,30.48
2023-12-30T17:31:09.455Z,26.83
2023-12-30T17:33:36.492Z,28.27
2023-12-30T17:36:03.556Z,27.42
2023-12-30T17:38:30.587Z,22.75
2023-12-30T17:40:57.613Z,26.80
2023-12-30T17:43:24.809Z,21.45
2023-12-30T17:45:51.743Z,35.25
2023-12-30T17:48:18.712Z,23.42
2023-12-30T17:50:46.338Z,25.42
2023-12-30T17:53:14.748Z,30.30
2023-12-30T17:55:42.148Z,24.67
2023-12-30T17:58:09.213Z,26.35
2023-12-30T18:00:36.894Z,18.67
2023-12-30T18:03:05.594Z,28.42
2023-12-30T18:05:32.844Z,24.08
2023-12-30T18:07:59.821Z,21.08
2023-12-30T18:10:27.491Z,25.55
2023-12-30T18:12:54.364Z,21.80
2023-12-30T18:15:22.190Z,20.65
2023-12-30T18:17:49.153Z,24.23
2023-12-30T18:20:18.578Z,30.15
2023-12-30T18:22:46.023Z,47.75
2023-12-30T18:25:13.153Z,35.60
2023-12-30T18:27:40.366Z,29.20
2023-12-30T18:30:08.005Z,19.67
2023-12-30T18:32:34.980Z,20.30
2023-12-30T18:35:03.510Z,18.67
2023-12-30T18:37:38.358Z,19.83
2023-12-30T18:40:08.304Z,21.48
2023-12-30T18:42:35.301Z,28.83
2023-12-30T18:45:02.252Z,27.88
2023-12-30T18:47:29.408Z,19.10
2023-12-30T18:49:57.320Z,16.52
2023-12-30T18:52:24.390Z,18.10
2023-12-30T18:54:51.495Z,16.90
2023-12-30T18:57:21.023Z,18.65
2023-12-30T18:59:48.036Z,17.70
2023-12-30T19:02:15.609Z,15.48
2023-12-30T19:04:45.844Z,16.58
2023-12-30T19:07:14.893Z,17.38
2023-12-30T19:09:42.864Z,28.70
2023-12-30T19:12:09.784Z,27.98
2023-12-30T19:14:36.649Z,27.85
2023-12-30T19:17:03.652Z,22.02
2023-12-30T19:19:30.643Z,19.42
2023-12-30T19:21:57.746Z,14.98
2023-12-30T19:24:24.624Z,33.00
2023-12-30T19:26:51.674Z,17.30
2023-12-30T19:29:21.407Z,15.05
2023-12-30T19:31:49.480Z,15.40
2023-12-30T19:34:16.549Z,15.18
2023-12-30T19:36:44.444Z,20.45
2023-12-30T19:39:11.377Z,20.42
2023-12-30T19:41:38.726Z,16.92
2023-12-30T19:44:06.498Z,14.52
2023-12-30T19:46:33.613Z,14.85
2023-12-30T19:49:00.957Z,18.17
2023-12-30T19:51:28.737Z,15.48
2023-12-30T19:53:55.890Z,15.52
2023-12-30T19:56:24.603Z,13.75
2023-12-30T19:58:52.072Z,16.33
2023-12-30T20:01:20.601Z,13.18
2023-12-30T20:03:48.694Z,17.35
2023-12-30T20:06:16.140Z,23.33
2023-12-30T20:08:43.300Z,15.15
2023-12-30T20:11:10.863Z,14.43
2023-12-30T20:13:39.930Z,16.25
2023-12-30T20:16:08.646Z,16.67
2023-12-30T20:18:36.363Z,12.65
2023-12-30T20:21:06.527Z,15.23
2023-12-30T20:23:35.536Z,20.80
2023-12-30T20:26:03.647Z,23.38
2023-12-30T20:28:31.020Z,18.02
2023-12-30T20:30:58.074Z,15.80
2023-12-30T20:33:25.206Z,14.40
2023-12-30T20:35:52.281Z,16.98
2023-12-30T20:38:19.268Z,18.08
2023-12-30T20:40:47.130Z,10.98
2023-12-30T20:43:14.292Z,11.68
2023-12-30T20:45:44.561Z,9.25
2023-12-30T20:48:11.680Z,12.48
2023-12-30T20:50:38.861Z,12.85
2023-12-30T20:53:07.731Z,13.98
2023-12-30T20:55:34.702Z,18.15
2023-12-30T20:58:01.608Z,14.07
2023-12-30T21:00:28.504Z,18.10
2023-12-30T21:02:55.436Z,17.45
2023-12-30T21:05:22.463Z,16.50
2023-12-30T21:07:49.414Z,21.23
2023-12-30T21:10:16.546Z,20.00
2023-12-30T21:12:43.460Z,25.20
2023-12-30T21:15:10.862Z,20.33
2023-12-30T21:17:38.856Z,17.33
2023-12-30T21:20:07.875Z,19.85
2023-12-30T21:22:34.911Z,17.58
2023-12-30T21:25:11.822Z,12.20
2023-12-30T21:27:46.129Z,16.33
2023-12-30T21:30:14.068Z,15.95
2023-12-30T21:32:41.118Z,20.83
2023-12-30T21:35:09.052Z,17.42
2023-12-30T21:37:41.925Z,20.60
2023-12-30T21:40:15.408Z,17.80
2023-12-30T21:42:42.517Z,8.48
2023-12-30T21:45:11.258Z,18.38
2023-12-30T21:47:38.314Z,14.73
2023-12-30T21:50:05.799Z,21.08
2023-12-30T21:52:34.207Z,18.45
2023-12-30T21:55:02.498Z,16.35
2023-12-30T21:57:29.988Z,26.40
2023-12-30T21:59:56.899Z,34.05
2023-12-30T22:02:23.759Z,15.52
2023-12-30T22:04:50.855Z,19.23
2023-12-30T22:07:17.936Z,15.10
2023-12-30T22:09:44.875Z,11.68
2023-12-30T22:12:11.869Z,11.18
2023-12-30T22:14:39.634Z,12.88
2023-12-30T22:17:09.337Z,9.50
2023-12-30T22:19:37.928Z,11.75
2023-12-30T22:22:05.241Z,12.68
2023-12-30T22:24:32.188Z,6.05
2023-12-30T22:26:59.069Z,10.00
2023-12-30T22:29:26.013Z,9.40
2023-12-30T22:31:52.961Z,10.05
2023-12-30T22:34:19.987Z,7.55
2023-12-30T22:36:46.943Z,11.15
2023-12-30T22:39:14.015Z,13.52
2023-12-30T22:41:41.021Z,11.80
2023-12-30T22:44:07.975Z,8.93
2023-12-30T22:46:37.252Z,6.50
2023-12-30T22:49:04.234Z,8.23
2023-12-30T22:51:31.126Z,12.98
2023-12-30T22:53:58.022Z,5.20
2023-12-30T22:56:24.914Z,7.40
2023-12-30T22:58:51.891Z,7.97
2023-12-30T23:01:18.882Z,10.82
2023-12-30T23:03:45.984Z,9.05
2023-12-30T23:06:15.866Z,7.55
2023-12-30T23:08:42.737Z,6.72
2023-12-30T23:11:09.631Z,11.73
2023-12-30T23:13:36.574Z,5.70
2023-12-30T23:16:03.706Z,7.32
2023-12-30T23:18:39.033Z,13.23
2023-12-30T23:21:06.215Z,7.35
2023-12-30T23:23:33.303Z,9.55
2023-12-30T23:26:00.246Z,6.43
2023-12-30T23:28:27.246Z,6.93
2023-12-30T23:30:55.176Z,5.90
2023-12-30T23:33:22.700Z,6.28
2023-12-30T23:35:49.623Z,7.93
2023-12-30T23:38:16.553Z,6.78
2023-12-30T23:40:43.490Z,8.00
2023-12-30T23:43:11.848Z,9.30
2023-12-30T23:45:41.470Z,7.47
2023-12-30T23:48:08.395Z,9.75
2023-12-30T23:50:35.246Z,6.53
2023-12-30T23:53:02.392Z,9.45
2023-12-30T23:55:29.429Z,14.07
2023-12-30T23:57:57.098Z,7.10
